createdAt,value
2018-02-10T00:00:26.883Z,73.32
2018-02-10T00:01:07.457Z,73.03
2018-02-10T00:01:48.023Z,73.41
2018-02-10T00:02:28.585Z,73.41
2018-02-10T00:03:09.129Z,73.5
2018-02-10T00:03:49.685Z,73.5
2018-02-10T00:04:30.271Z,73.5
2018-02-10T00:05:10.870Z,73.6
2018-02-10T00:05:51.393Z,73.5
2018-02-10T00:06:31.940Z,73.5
2018-02-10T00:07:12.511Z,73.6
2018-02-10T00:07:53.115Z,73.41
2018-02-10T00:08:33.643Z,73.41
2018-02-10T00:09:14.221Z,73.32
2018-02-10T00:09:54.767Z,73.41
2018-02-10T00:10:35.323Z,73.6
2018-02-10T00:11:15.862Z,73.5
2018-02-10T00:11:56.416Z,73.32
2018-02-10T00:12:36.979Z,73.32
2018-02-10T00:13:17.584Z,73.32
2018-02-10T00:13:58.149Z,73.41
2018-02-10T00:14:38.709Z,73.5
2018-02-10T00:15:19.254Z,73.41
2018-02-10T00:15:59.819Z,73.69
2018-02-10T00:16:40.375Z,73.32
2018-02-10T00:17:20.926Z,73.13
2018-02-10T00:18:01.491Z,73.13
2018-02-10T00:18:42.069Z,73.45
2018-02-10T00:19:22.641Z,73.41
2018-02-10T00:20:03.219Z,73.41
2018-02-10T00:20:43.766Z,73.41
2018-02-10T00:21:24.319Z,73.32
2018-02-10T00:22:04.868Z,73.41
2018-02-10T00:22:45.426Z,73.32
2018-02-10T00:23:25.992Z,73.41
2018-02-10T00:24:06.541Z,73.41
2018-02-10T00:24:47.084Z,73.54
2018-02-10T00:25:27.645Z,73.5
2018-02-10T00:26:08.193Z,73.32
2018-02-10T00:26:48.739Z,73.6
2018-02-10T00:27:29.298Z,73.41
2018-02-10T00:28:09.850Z,73.32
2018-02-10T00:28:50.400Z,73.32
2018-02-10T00:29:30.990Z,73.5
2018-02-10T00:30:11.539Z,73.32
2018-02-10T00:30:52.081Z,73.41
2018-02-10T00:31:32.657Z,73.41
2018-02-10T00:32:13.216Z,73.41
2018-02-10T00:32:53.779Z,73.13
2018-02-10T00:33:34.349Z,73.03
2018-02-10T00:34:14.889Z,73.32
2018-02-10T00:34:55.451Z,73.32
2018-02-10T00:35:35.989Z,73.22
2018-02-10T00:36:16.608Z,73.32
2018-02-10T00:36:57.181Z,73.03
2018-02-10T00:37:37.734Z,73.5
2018-02-10T00:38:18.292Z,73.22
2018-02-10T00:38:58.863Z,73.22
2018-02-10T00:39:39.400Z,73.32
2018-02-10T00:40:19.986Z,73.32
2018-02-10T00:41:00.557Z,73.32
2018-02-10T00:41:41.118Z,73.6
2018-02-10T00:42:21.669Z,73.41
2018-02-10T00:43:02.231Z,73.69
2018-02-10T00:43:42.791Z,73.88
2018-02-10T00:44:23.420Z,73.6
2018-02-10T00:45:04.025Z,73.41
2018-02-10T00:45:44.577Z,73.79
2018-02-10T00:46:25.125Z,73.79
2018-02-10T00:47:05.681Z,73.88
2018-02-10T00:47:46.212Z,73.98
2018-02-10T00:48:26.791Z,73.79
2018-02-10T00:49:07.368Z,74.45
2018-02-10T00:49:47.956Z,74.45
2018-02-10T00:50:28.503Z,73.79
2018-02-10T00:51:09.090Z,74.26
2018-02-10T00:51:49.680Z,74.17
2018-02-10T00:52:30.281Z,74.07
2018-02-10T00:53:10.846Z,74.26
2018-02-10T00:53:51.392Z,74.36
2018-02-10T00:54:31.964Z,74.45
2018-02-10T00:55:12.517Z,74.64
2018-02-10T00:55:53.112Z,74.26
2018-02-10T00:56:33.702Z,74.45
2018-02-10T00:57:14.258Z,74.83
2018-02-10T00:57:54.819Z,74.64
2018-02-10T00:58:35.393Z,74.83
2018-02-10T00:59:15.922Z,74.83
2018-02-10T00:59:56.516Z,74.64
2018-02-10T01:00:37.093Z,74.64
2018-02-10T01:01:17.657Z,74.45
2018-02-10T01:01:58.219Z,74.55
2018-02-10T01:02:38.756Z,74.26
2018-02-10T01:03:19.316Z,74.83
2018-02-10T01:03:59.897Z,74.74
2018-02-10T01:04:40.442Z,74.64
2018-02-10T01:05:20.982Z,74.83
2018-02-10T01:06:01.536Z,74.83
2018-02-10T01:06:42.088Z,74.74
2018-02-10T01:07:22.652Z,74.45
2018-02-10T01:08:03.189Z,74.93
2018-02-10T01:08:43.759Z,74.45
2018-02-10T01:09:24.313Z,74.74
2018-02-10T01:10:04.844Z,74.93
2018-02-10T01:10:45.449Z,75.68
2018-02-10T01:11:26.003Z,75.49
2018-02-10T01:12:06.552Z,75.4
2018-02-10T01:12:47.100Z,75.4
2018-02-10T01:13:27.659Z,75.4
2018-02-10T01:14:08.248Z,75.49
2018-02-10T01:14:48.777Z,75.59
2018-02-10T01:15:29.324Z,75.21
2018-02-10T01:16:09.879Z,75.21
2018-02-10T01:16:50.421Z,75.21
2018-02-10T01:17:30.958Z,75.31
2018-02-10T01:18:11.511Z,75.4
2018-02-10T01:18:52.072Z,75.12
2018-02-10T01:19:32.611Z,75.12
2018-02-10T01:20:13.142Z,75.4
2018-02-10T01:20:53.715Z,75.12
2018-02-10T01:21:34.257Z,75.31
2018-02-10T01:22:14.834Z,75.49
2018-02-10T01:22:55.417Z,75.12
2018-02-10T01:23:35.983Z,75.12
2018-02-10T01:24:16.552Z,75.31
2018-02-10T01:24:57.129Z,75.21
2018-02-10T01:25:37.681Z,75.49
2018-02-10T01:26:18.225Z,75.4
2018-02-10T01:26:58.854Z,75.4
2018-02-10T01:27:39.398Z,75.4
2018-02-10T01:28:19.979Z,75.49
2018-02-10T01:29:00.530Z,75.68
2018-02-10T01:29:41.054Z,75.49
2018-02-10T01:30:21.587Z,75.4
2018-02-10T01:31:02.140Z,75.59
2018-02-10T01:31:42.684Z,75.49
2018-02-10T01:32:23.236Z,75.31
2018-02-10T01:33:03.787Z,75.4
2018-02-10T01:33:44.357Z,75.4
2018-02-10T01:34:24.992Z,75.59
2018-02-10T01:35:05.577Z,75.68
2018-02-10T01:35:46.143Z,75.31
2018-02-10T01:36:26.708Z,75.49
2018-02-10T01:37:07.222Z,75.49
2018-02-10T01:37:47.782Z,75.4
2018-02-10T01:38:28.329Z,75.68
2018-02-10T01:39:08.892Z,75.68
2018-02-10T01:39:49.439Z,75.59
2018-02-10T01:40:30.034Z,75.59
2018-02-10T01:41:10.577Z,75.49
2018-02-10T01:41:51.132Z,75.49
2018-02-10T01:42:32.068Z,75.4
2018-02-10T01:43:12.629Z,75.87
2018-02-10T01:43:53.158Z,75.78
2018-02-10T01:44:33.726Z,75.49
2018-02-10T01:45:14.249Z,75.59
2018-02-10T01:45:54.796Z,75.59
2018-02-10T01:46:35.389Z,75.68
2018-02-10T01:47:15.929Z,75.78
2018-02-10T01:47:56.510Z,75.49
2018-02-10T01:48:37.086Z,75.68
2018-02-10T01:49:17.640Z,75.78
2018-02-10T01:49:58.482Z,76.15
2018-02-10T01:50:39.214Z,76.34
2018-02-10T01:51:19.776Z,76.06
2018-02-10T01:52:00.335Z,76.15
2018-02-10T01:52:40.896Z,76.15
2018-02-10T01:53:21.442Z,76.15
2018-02-10T01:54:02.076Z,75.96
2018-02-10T01:54:42.639Z,75.87
2018-02-10T01:55:23.185Z,76.25
2018-02-10T01:56:03.753Z,75.96
2018-02-10T01:56:44.296Z,75.87
2018-02-10T01:57:24.872Z,76.06
2018-02-10T01:58:05.408Z,75.96
2018-02-10T01:58:46.530Z,75.96
2018-02-10T01:59:27.619Z,75.96
2018-02-10T02:00:08.193Z,76.06
2018-02-10T02:00:48.781Z,75.96
2018-02-10T02:01:29.327Z,75.87
2018-02-10T02:02:09.932Z,76.06
2018-02-10T02:02:50.472Z,76.15
2018-02-10T02:03:31.052Z,76.06
2018-02-10T02:04:11.583Z,76.06
2018-02-10T02:04:52.130Z,75.96
2018-02-10T02:05:32.776Z,75.87
2018-02-10T02:06:13.355Z,75.96
2018-02-10T02:06:53.900Z,75.96
2018-02-10T02:07:34.459Z,76.25
2018-02-10T02:08:15.012Z,76.34
2018-02-10T02:08:55.587Z,76.06
2018-02-10T02:09:36.101Z,76.06
2018-02-10T02:10:16.637Z,76.53
2018-02-10T02:10:57.179Z,76.25
2018-02-10T02:11:37.798Z,76.15
2018-02-10T02:12:18.353Z,76.25
2018-02-10T02:12:58.900Z,76.25
2018-02-10T02:13:39.448Z,76.53
2018-02-10T02:14:19.997Z,76.53
2018-02-10T02:15:00.533Z,76.44
2018-02-10T02:15:41.072Z,76.63
2018-02-10T02:16:21.620Z,76.34
2018-02-10T02:17:02.189Z,76.25
2018-02-10T02:17:42.766Z,76.34
2018-02-10T02:18:23.338Z,76.44
2018-02-10T02:19:03.870Z,76.63
2018-02-10T02:19:45.829Z,76.63
2018-02-10T02:20:26.900Z,76.53
2018-02-10T02:21:07.452Z,76.34
2018-02-10T02:21:48.044Z,76.44
2018-02-10T02:22:28.641Z,76.34
2018-02-10T02:23:09.139Z,76.25
2018-02-10T02:23:50.483Z,76.53
2018-02-10T02:24:31.017Z,76.34
2018-02-10T02:25:11.567Z,76.53
2018-02-10T02:25:52.133Z,76.44
2018-02-10T02:26:32.723Z,76.53
2018-02-10T02:27:13.289Z,76.34
2018-02-10T02:27:54.078Z,76.53
2018-02-10T02:28:34.505Z,76.15
2018-02-10T02:29:15.057Z,76.53
2018-02-10T02:29:55.612Z,76.63
2018-02-10T02:30:36.151Z,76.44
2018-02-10T02:31:16.750Z,76.44
2018-02-10T02:31:57.451Z,76.34
2018-02-10T02:32:37.993Z,76.44
2018-02-10T02:33:18.549Z,76.53
2018-02-10T02:33:59.091Z,76.53
2018-02-10T02:34:39.638Z,76.44
2018-02-10T02:35:20.181Z,76.34
2018-02-10T02:36:00.739Z,76.53
2018-02-10T02:36:41.274Z,76.44
2018-02-10T02:37:21.826Z,76.25
2018-02-10T02:38:02.369Z,76.53
2018-02-10T02:38:42.928Z,76.53
2018-02-10T02:39:23.620Z,76.25
2018-02-10T02:40:04.176Z,76.63
2018-02-10T02:40:44.722Z,76.63
2018-02-10T02:41:25.263Z,76.72
2018-02-10T02:42:05.816Z,76.44
2018-02-10T02:42:46.366Z,77.2
2018-02-10T02:43:27.253Z,76.72
2018-02-10T02:44:07.825Z,76.63
2018-02-10T02:44:48.389Z,76.82
2018-02-10T02:45:28.929Z,76.53
2018-02-10T02:46:09.497Z,76.91
2018-02-10T02:46:50.026Z,77.01
2018-02-10T02:47:30.578Z,76.82
2018-02-10T02:48:11.102Z,77.01
2018-02-10T02:48:51.633Z,76.82
2018-02-10T02:49:32.177Z,76.53
2018-02-10T02:50:12.744Z,76.91
2018-02-10T02:50:53.312Z,76.91
2018-02-10T02:51:33.902Z,76.63
2018-02-10T02:52:14.482Z,77.1
2018-02-10T02:52:55.017Z,76.82
2018-02-10T02:53:35.561Z,76.82
2018-02-10T02:54:16.120Z,76.82
2018-02-10T02:54:56.711Z,76.72
2018-02-10T02:55:37.268Z,76.34
2018-02-10T02:56:17.837Z,76.44
2018-02-10T02:56:58.408Z,76.53
2018-02-10T02:57:38.967Z,77.1
2018-02-10T02:58:19.565Z,76.82
2018-02-10T02:59:00.106Z,77.1
2018-02-10T02:59:40.674Z,76.91
2018-02-10T03:00:21.216Z,76.91
2018-02-10T03:01:01.875Z,76.82
2018-02-10T03:01:42.578Z,76.63
2018-02-10T03:02:23.126Z,77.01
2018-02-10T03:03:03.673Z,77.1
2018-02-10T03:03:44.266Z,76.91
2018-02-10T03:04:24.888Z,76.91
2018-02-10T03:05:05.455Z,76.63
2018-02-10T03:05:46.538Z,76.63
2018-02-10T03:06:26.989Z,76.63
2018-02-10T03:07:07.556Z,76.91
2018-02-10T03:07:48.136Z,76.82
2018-02-10T03:08:28.663Z,76.63
2018-02-10T03:09:09.200Z,76.91
2018-02-10T03:09:49.741Z,76.82
2018-02-10T03:10:30.293Z,76.63
2018-02-10T03:11:10.843Z,76.82
2018-02-10T03:11:51.363Z,76.82
2018-02-10T03:12:31.961Z,76.82
2018-02-10T03:13:12.553Z,77.1
2018-02-10T03:13:53.101Z,76.82
2018-02-10T03:14:33.793Z,77.48
2018-02-10T03:15:14.369Z,77.58
2018-02-10T03:15:54.933Z,77.39
2018-02-10T03:16:35.480Z,77.39
2018-02-10T03:17:16.051Z,77.39
2018-02-10T03:17:56.557Z,77.76
2018-02-10T03:18:37.084Z,77.67
2018-02-10T03:19:17.661Z,77.67
2018-02-10T03:19:58.217Z,77.29
2018-02-10T03:20:38.787Z,77.39
2018-02-10T03:21:19.355Z,77.39
2018-02-10T03:21:59.904Z,77.48
2018-02-10T03:22:40.471Z,77.29
2018-02-10T03:23:21.035Z,77.76
2018-02-10T03:24:01.601Z,77.58
2018-02-10T03:24:42.173Z,77.48
2018-02-10T03:25:22.731Z,77.76
2018-02-10T03:26:03.368Z,77.76
2018-02-10T03:26:43.934Z,77.29
2018-02-10T03:27:24.455Z,77.39
2018-02-10T03:28:05.038Z,77.58
2018-02-10T03:28:45.585Z,77.2
2018-02-10T03:29:26.202Z,77.58
2018-02-10T03:30:06.712Z,77.58
2018-02-10T03:30:47.251Z,77.29
2018-02-10T03:31:27.860Z,77.48
2018-02-10T03:32:08.420Z,77.48
2018-02-10T03:32:49.026Z,77.39
2018-02-10T03:33:29.543Z,77.67
2018-02-10T03:34:10.087Z,77.29
2018-02-10T03:34:50.621Z,77.29
2018-02-10T03:35:31.176Z,77.29
2018-02-10T03:36:11.757Z,77.76
2018-02-10T03:36:52.349Z,77.29
2018-02-10T03:37:32.854Z,77.58
2018-02-10T03:38:13.400Z,77.58
2018-02-10T03:38:53.956Z,77.76
2018-02-10T03:39:34.497Z,77.86
2018-02-10T03:40:15.116Z,77.67
2018-02-10T03:40:55.614Z,77.67
2018-02-10T03:41:36.198Z,78.23
2018-02-10T03:42:16.785Z,78.42
2018-02-10T03:42:57.334Z,78.05
2018-02-10T03:43:37.911Z,78.05
2018-02-10T03:44:18.447Z,77.86
2018-02-10T03:44:59.028Z,78.05
2018-02-10T03:45:39.585Z,77.86
2018-02-10T03:46:20.139Z,77.86
2018-02-10T03:47:00.676Z,77.95
2018-02-10T03:47:41.222Z,78.05
2018-02-10T03:48:21.763Z,78.42
2018-02-10T03:49:02.309Z,78.23
2018-02-10T03:49:42.849Z,77.95
2018-02-10T03:50:23.408Z,77.95
2018-02-10T03:51:03.959Z,78.05
2018-02-10T03:51:44.502Z,78.23
2018-02-10T03:52:25.027Z,78.05
2018-02-10T03:53:05.572Z,78.33
2018-02-10T03:53:46.125Z,78.23
2018-02-10T03:54:26.668Z,78.23
2018-02-10T03:55:07.259Z,78.33
2018-02-10T03:55:47.820Z,78.14
2018-02-10T03:56:28.366Z,78.33
2018-02-10T03:57:08.917Z,78.23
2018-02-10T03:57:49.468Z,78.05
2018-02-10T03:58:30.045Z,77.95
2018-02-10T03:59:10.582Z,77.95
2018-02-10T03:59:51.148Z,77.95
2018-02-10T04:00:31.746Z,78.23
2018-02-10T04:01:12.315Z,78.23
2018-02-10T04:01:52.910Z,78.61
2018-02-10T04:02:33.450Z,78.42
2018-02-10T04:03:13.987Z,78.8
2018-02-10T04:03:54.542Z,78.71
2018-02-10T04:04:35.100Z,78.71
2018-02-10T04:05:15.664Z,78.71
2018-02-10T04:05:56.201Z,78.9
2018-02-10T04:06:36.752Z,78.52
2018-02-10T04:07:17.350Z,78.61
2018-02-10T04:07:57.889Z,78.71
2018-02-10T04:08:38.423Z,78.42
2018-02-10T04:09:18.988Z,78.71
2018-02-10T04:09:59.526Z,78.61
2018-02-10T04:10:40.081Z,78.71
2018-02-10T04:11:20.636Z,78.52
2018-02-10T04:12:01.175Z,78.61
2018-02-10T04:12:41.703Z,78.42
2018-02-10T04:13:22.308Z,78.23
2018-02-10T04:14:02.851Z,77.95
2018-02-10T04:14:43.391Z,77.95
2018-02-10T04:15:23.935Z,78.23
2018-02-10T04:16:04.510Z,77.95
2018-02-10T04:16:45.093Z,78.23
2018-02-10T04:17:25.635Z,78.05
2018-02-10T04:18:06.204Z,78.14
2018-02-10T04:18:46.754Z,78.23
2018-02-10T04:19:27.292Z,78.05
2018-02-10T04:20:07.880Z,78.33
2018-02-10T04:20:48.412Z,78.52
2018-02-10T04:21:28.963Z,78.05
2018-02-10T04:22:09.548Z,78.23
2018-02-10T04:22:50.093Z,78.23
2018-02-10T04:23:30.633Z,78.33
2018-02-10T04:24:11.223Z,78.14
2018-02-10T04:24:51.830Z,78.23
2018-02-10T04:25:32.403Z,78.33
2018-02-10T04:26:12.951Z,78.33
2018-02-10T04:26:53.554Z,78.23
2018-02-10T04:27:34.138Z,78.14
2018-02-10T04:28:14.689Z,78.05
2018-02-10T04:28:55.247Z,77.95
2018-02-10T04:29:35.824Z,78.05
2018-02-10T04:30:16.351Z,78.05
2018-02-10T04:30:56.893Z,78.23
2018-02-10T04:31:37.462Z,78.14
2018-02-10T04:32:18.131Z,78.23
2018-02-10T04:32:58.671Z,78.23
2018-02-10T04:33:39.225Z,78.14
2018-02-10T04:34:19.785Z,78.05
2018-02-10T04:35:00.366Z,78.23
2018-02-10T04:35:40.916Z,78.05
2018-02-10T04:36:21.468Z,78.05
2018-02-10T04:37:02.037Z,77.86
2018-02-10T04:37:42.602Z,77.95
2018-02-10T04:38:23.167Z,78.42
2018-02-10T04:39:03.729Z,78.23
2018-02-10T04:39:44.295Z,78.23
2018-02-10T04:40:24.840Z,78.23
2018-02-10T04:41:05.393Z,78.14
2018-02-10T04:41:45.946Z,78.23
2018-02-10T04:42:26.500Z,78.23
2018-02-10T04:43:07.043Z,77.95
2018-02-10T04:43:47.602Z,78.14
2018-02-10T04:44:28.159Z,78.23
2018-02-10T04:45:08.709Z,78.14
2018-02-10T04:45:49.257Z,78.14
2018-02-10T04:46:29.803Z,78.33
2018-02-10T04:47:10.375Z,77.95
2018-02-10T04:47:50.960Z,77.95
2018-02-10T04:48:31.515Z,78.33
2018-02-10T04:49:12.087Z,78.23
2018-02-10T04:49:52.657Z,78.61
2018-02-10T04:50:33.208Z,78.52
2018-02-10T04:51:13.759Z,78.52
2018-02-10T04:51:54.311Z,78.52
2018-02-10T04:52:34.852Z,78.42
2018-02-10T04:53:15.424Z,78.42
2018-02-10T04:53:55.951Z,78.42
2018-02-10T04:54:36.493Z,78.23
2018-02-10T04:55:17.050Z,78.23
2018-02-10T04:55:57.603Z,78.23
2018-02-10T04:56:38.174Z,78.14
2018-02-10T04:57:18.775Z,78.23
2018-02-10T04:57:59.290Z,77.95
2018-02-10T04:58:39.889Z,78.05
2018-02-10T04:59:20.861Z,78.23
2018-02-10T05:00:01.665Z,77.95
2018-02-10T05:00:45.670Z,77.95
2018-02-10T05:01:26.418Z,78.14
2018-02-10T05:02:07.354Z,78.14
2018-02-10T05:02:47.921Z,78.23
2018-02-10T05:03:28.482Z,78.23
2018-02-10T05:04:09.061Z,78.71
2018-02-10T05:04:49.612Z,78.71
2018-02-10T05:05:30.160Z,78.99
2018-02-10T05:06:10.753Z,78.8
2018-02-10T05:06:51.295Z,78.61
2018-02-10T05:07:31.906Z,78.52
2018-02-10T05:08:12.438Z,78.52
2018-02-10T05:08:52.997Z,78.52
2018-02-10T05:09:33.566Z,78.61
2018-02-10T05:10:14.131Z,78.8
2018-02-10T05:10:54.681Z,78.71
2018-02-10T05:11:35.222Z,78.61
2018-02-10T05:12:15.775Z,78.61
2018-02-10T05:12:56.326Z,78.71
2018-02-10T05:13:36.884Z,78.8
2018-02-10T05:14:17.429Z,78.71
2018-02-10T05:14:57.981Z,78.52
2018-02-10T05:15:38.533Z,78.71
2018-02-10T05:16:19.098Z,78.52
2018-02-10T05:16:59.643Z,78.61
2018-02-10T05:17:40.184Z,78.52
2018-02-10T05:18:20.748Z,78.71
2018-02-10T05:19:01.300Z,78.71
2018-02-10T05:19:41.838Z,78.8
2018-02-10T05:20:22.414Z,78.8
2018-02-10T05:21:02.957Z,78.14
2018-02-10T05:21:43.493Z,78.33
2018-02-10T05:22:24.046Z,78.14
2018-02-10T05:23:04.588Z,78.23
2018-02-10T05:23:45.136Z,78.05
2018-02-10T05:24:25.696Z,78.71
2018-02-10T05:25:06.240Z,78.71
2018-02-10T05:25:46.802Z,78.61
2018-02-10T05:26:27.371Z,78.71
2018-02-10T05:27:07.901Z,78.8
2018-02-10T05:27:48.497Z,78.9
2018-02-10T05:28:29.076Z,78.71
2018-02-10T05:29:09.627Z,78.52
2018-02-10T05:29:50.210Z,78.52
2018-02-10T05:30:30.756Z,78.8
2018-02-10T05:31:11.360Z,78.9
2018-02-10T05:31:51.933Z,78.71
2018-02-10T05:32:32.514Z,78.61
2018-02-10T05:33:13.062Z,78.52
2018-02-10T05:33:53.619Z,78.52
2018-02-10T05:34:34.173Z,78.61
2018-02-10T05:35:14.697Z,78.42
2018-02-10T05:35:55.270Z,78.61
2018-02-10T05:36:35.825Z,78.61
2018-02-10T05:37:16.420Z,78.61
2018-02-10T05:37:56.906Z,78.71
2018-02-10T05:38:37.487Z,78.52
2018-02-10T05:39:18.026Z,78.71
2018-02-10T05:39:58.604Z,78.71
2018-02-10T05:40:39.129Z,78.71
2018-02-10T05:41:19.685Z,78.9
2018-02-10T05:42:00.235Z,78.61
2018-02-10T05:42:40.786Z,78.9
2018-02-10T05:43:21.334Z,78.71
2018-02-10T05:44:01.907Z,78.8
2018-02-10T05:44:42.473Z,78.9
2018-02-10T05:45:23.052Z,78.61
2018-02-10T05:46:03.616Z,78.23
2018-02-10T05:46:44.175Z,78.71
2018-02-10T05:47:24.730Z,78.61
2018-02-10T05:48:05.300Z,78.71
2018-02-10T05:48:45.839Z,78.8
2018-02-10T05:49:26.367Z,78.71
2018-02-10T05:50:07.123Z,78.8
2018-02-10T05:50:47.682Z,78.8
2018-02-10T05:51:28.257Z,78.8
2018-02-10T05:52:08.795Z,78.52
2018-02-10T05:52:49.333Z,78.42
2018-02-10T05:53:29.885Z,78.71
2018-02-10T05:54:10.458Z,78.52
2018-02-10T05:54:51.009Z,78.52
2018-02-10T05:55:31.560Z,78.71
2018-02-10T05:56:12.125Z,78.52
2018-02-10T05:56:52.676Z,78.71
2018-02-10T05:57:33.256Z,78.05
2018-02-10T05:58:13.818Z,78.42
2018-02-10T05:58:54.355Z,78.23
2018-02-10T05:59:34.916Z,78.14
2018-02-10T06:00:15.474Z,78.23
2018-02-10T06:00:56.090Z,77.95
2018-02-10T06:01:36.665Z,78.33
2018-02-10T06:02:17.219Z,78.33
2018-02-10T06:02:57.798Z,78.23
2018-02-10T06:03:38.362Z,78.14
2018-02-10T06:04:18.911Z,78.23
2018-02-10T06:04:59.490Z,78.14
2018-02-10T06:05:40.064Z,78.42
2018-02-10T06:06:20.609Z,78.71
2018-02-10T06:07:01.173Z,78.52
2018-02-10T06:07:41.732Z,78.71
2018-02-10T06:08:22.290Z,78.52
2018-02-10T06:09:02.851Z,78.71
2018-02-10T06:09:43.420Z,78.61
2018-02-10T06:10:23.988Z,78.52
2018-02-10T06:11:04.538Z,78.52
2018-02-10T06:11:45.122Z,78.71
2018-02-10T06:12:25.675Z,78.61
2018-02-10T06:13:06.229Z,78.8
2018-02-10T06:13:46.782Z,78.8
2018-02-10T06:14:27.311Z,78.52
2018-02-10T06:15:07.865Z,78.71
2018-02-10T06:15:48.411Z,78.42
2018-02-10T06:16:28.966Z,78.52
2018-02-10T06:17:09.515Z,78.23
2018-02-10T06:17:50.089Z,78.23
2018-02-10T06:18:30.624Z,78.23
2018-02-10T06:19:11.172Z,78.23
2018-02-10T06:19:51.736Z,78.23
2018-02-10T06:20:32.270Z,78.23
2018-02-10T06:21:12.828Z,77.95
2018-02-10T06:21:53.401Z,78.42
2018-02-10T06:22:33.962Z,78.8
2018-02-10T06:23:14.525Z,78.61
2018-02-10T06:23:55.086Z,78.52
2018-02-10T06:24:35.645Z,78.61
2018-02-10T06:25:16.217Z,78.99
2018-02-10T06:25:56.771Z,78.8
2018-02-10T06:26:37.334Z,78.61
2018-02-10T06:27:17.880Z,78.52
2018-02-10T06:27:58.475Z,78.61
2018-02-10T06:28:39.019Z,78.61
2018-02-10T06:29:19.571Z,78.71
2018-02-10T06:30:00.134Z,78.42
2018-02-10T06:30:40.678Z,78.61
2018-02-10T06:31:21.264Z,78.52
2018-02-10T06:32:01.818Z,78.99
2018-02-10T06:32:42.378Z,78.71
2018-02-10T06:33:22.937Z,78.52
2018-02-10T06:34:03.505Z,78.71
2018-02-10T06:34:44.040Z,78.52
2018-02-10T06:35:24.590Z,78.42
2018-02-10T06:36:05.158Z,78.71
2018-02-10T06:36:45.708Z,78.61
2018-02-10T06:37:26.267Z,78.71
2018-02-10T06:38:06.809Z,78.9
2018-02-10T06:38:47.364Z,78.8
2018-02-10T06:39:27.931Z,78.8
2018-02-10T06:40:08.475Z,78.71
2018-02-10T06:40:48.991Z,78.8
2018-02-10T06:41:29.565Z,78.61
2018-02-10T06:42:10.142Z,78.8
2018-02-10T06:42:50.679Z,78.61
2018-02-10T06:43:31.229Z,78.52
2018-02-10T06:44:11.784Z,78.61
2018-02-10T06:44:52.342Z,78.42
2018-02-10T06:45:32.893Z,78.61
2018-02-10T06:46:13.432Z,78.61
2018-02-10T06:46:53.981Z,78.42
2018-02-10T06:47:34.563Z,78.71
2018-02-10T06:48:15.125Z,79.18
2018-02-10T06:48:55.719Z,78.9
2018-02-10T06:49:36.266Z,79.09
2018-02-10T06:50:16.826Z,78.8
2018-02-10T06:50:57.380Z,79.09
2018-02-10T06:51:37.931Z,79.09
2018-02-10T06:52:18.511Z,79.09
2018-02-10T06:52:59.019Z,78.99
2018-02-10T06:53:39.583Z,78.99
2018-02-10T06:54:20.124Z,78.99
2018-02-10T06:55:00.675Z,78.9
2018-02-10T06:55:41.218Z,79.09
2018-02-10T06:56:21.769Z,78.8
2018-02-10T06:57:02.332Z,78.9
2018-02-10T06:57:42.877Z,78.71
2018-02-10T06:58:23.416Z,78.99
2018-02-10T06:59:03.973Z,78.8
2018-02-10T06:59:44.571Z,78.8
2018-02-10T07:00:25.114Z,78.9
2018-02-10T07:01:05.673Z,78.99
2018-02-10T07:01:46.234Z,78.8
2018-02-10T07:02:26.778Z,78.52
2018-02-10T07:03:07.334Z,78.9
2018-02-10T07:03:47.881Z,78.99
2018-02-10T07:04:28.443Z,78.71
2018-02-10T07:05:09.012Z,78.71
2018-02-10T07:05:49.568Z,78.71
2018-02-10T07:06:30.133Z,78.8
2018-02-10T07:07:10.703Z,78.8
2018-02-10T07:07:51.241Z,78.71
2018-02-10T07:08:31.794Z,78.61
2018-02-10T07:09:12.381Z,78.71
2018-02-10T07:09:52.921Z,78.71
2018-02-10T07:10:33.473Z,78.9
2018-02-10T07:11:14.029Z,78.71
2018-02-10T07:11:54.588Z,79.09
2018-02-10T07:12:35.180Z,78.8
2018-02-10T07:13:15.758Z,78.61
2018-02-10T07:13:56.286Z,78.61
2018-02-10T07:14:36.913Z,78.9
2018-02-10T07:15:17.480Z,78.8
2018-02-10T07:15:58.088Z,78.9
2018-02-10T07:16:38.640Z,78.8
2018-02-10T07:17:19.203Z,78.9
2018-02-10T07:17:59.789Z,79.37
2018-02-10T07:18:40.322Z,79.28
2018-02-10T07:19:20.845Z,79.28
2018-02-10T07:20:01.388Z,79.28
2018-02-10T07:20:41.948Z,79.37
2018-02-10T07:21:22.501Z,79.09
2018-02-10T07:22:03.089Z,79.18
2018-02-10T07:23:50.541Z,79.56
2018-02-10T07:24:31.092Z,78.99
2018-02-10T07:25:11.643Z,79.18
2018-02-10T07:25:52.214Z,79.18
2018-02-10T07:26:32.745Z,79.37
2018-02-10T07:27:13.314Z,79.09
2018-02-10T07:27:53.848Z,79.09
2018-02-10T07:28:34.427Z,79.18
2018-02-10T07:29:14.997Z,79.18
2018-02-10T07:29:55.565Z,79.09
2018-02-10T07:30:36.181Z,79.09
2018-02-10T07:31:16.712Z,79.09
2018-02-10T07:31:57.285Z,79.28
2018-02-10T07:32:37.837Z,79.28
2018-02-10T07:33:18.353Z,78.8
2018-02-10T07:33:58.927Z,79.09
2018-02-10T07:34:39.532Z,78.9
2018-02-10T07:35:20.093Z,78.8
2018-02-10T07:36:00.631Z,78.9
2018-02-10T07:36:41.256Z,78.71
2018-02-10T07:37:21.909Z,79.09
2018-02-10T07:38:02.467Z,78.99
2018-02-10T07:38:43.021Z,78.71
2018-02-10T07:39:23.562Z,79.47
2018-02-10T07:40:04.132Z,79.28
2018-02-10T07:40:44.744Z,79.37
2018-02-10T07:41:25.309Z,79.18
2018-02-10T07:42:05.912Z,79.94
2018-02-10T07:42:46.529Z,79.75
2018-02-10T07:43:27.097Z,79.56
2018-02-10T07:44:07.770Z,79.85
2018-02-10T07:44:48.305Z,80.13
2018-02-10T07:45:28.894Z,80.13
2018-02-10T07:46:09.489Z,80.22
2018-02-10T07:46:50.204Z,80.04
2018-02-10T07:47:30.812Z,80.04
2018-02-10T07:48:11.368Z,80.41
2018-02-10T07:48:51.966Z,80.32
2018-02-10T07:49:32.516Z,80.41
2018-02-10T07:50:13.104Z,80.41
2018-02-10T07:50:53.675Z,80.6
2018-02-10T07:51:34.352Z,80.04
2018-02-10T07:52:14.917Z,80.13
2018-02-10T07:52:55.546Z,80.04
2018-02-10T07:53:36.254Z,80.04
2018-02-10T07:54:17.097Z,79.66
2018-02-10T07:54:57.802Z,79.75
2018-02-10T07:55:38.352Z,80.22
2018-02-10T07:56:19.117Z,80.04
2018-02-10T07:56:59.763Z,80.13
2018-02-10T07:57:40.613Z,80.13
2018-02-10T07:58:21.199Z,80.13
2018-02-10T07:59:01.843Z,79.85
2018-02-10T07:59:42.396Z,79.75
2018-02-10T08:00:23.071Z,79.85
2018-02-10T08:01:03.669Z,79.85
2018-02-10T08:01:44.260Z,79.75
2018-02-10T08:02:24.840Z,79.75
2018-02-10T08:03:05.414Z,79.66
2018-02-10T08:03:45.948Z,79.75
2018-02-10T08:04:26.531Z,79.85
2018-02-10T08:05:07.111Z,79.75
2018-02-10T08:05:47.699Z,79.94
2018-02-10T08:06:28.208Z,79.66
2018-02-10T08:07:08.770Z,79.56
2018-02-10T08:07:49.338Z,79.66
2018-02-10T08:08:29.932Z,79.66
2018-02-10T08:09:10.524Z,79.66
2018-02-10T08:09:51.121Z,80.04
2018-02-10T08:10:31.650Z,79.85
2018-02-10T08:11:12.215Z,79.75
2018-02-10T08:11:52.794Z,79.94
2018-02-10T08:12:33.419Z,79.66
2018-02-10T08:13:13.992Z,80.04
2018-02-10T08:13:54.547Z,79.75
2018-02-10T08:14:35.188Z,79.66
2018-02-10T08:15:15.752Z,79.94
2018-02-10T08:15:56.335Z,79.85
2018-02-10T08:16:36.883Z,79.94
2018-02-10T08:17:17.483Z,80.13
2018-02-10T08:17:58.064Z,80.13
2018-02-10T08:18:38.651Z,80.13
2018-02-10T08:19:19.224Z,80.32
2018-02-10T08:19:59.786Z,80.04
2018-02-10T08:20:40.369Z,80.04
2018-02-10T08:21:20.940Z,80.13
2018-02-10T08:22:01.472Z,79.94
2018-02-10T08:22:42.006Z,79.94
2018-02-10T08:23:22.599Z,79.75
2018-02-10T08:24:03.223Z,79.75
2018-02-10T08:24:43.818Z,79.85
2018-02-10T08:25:24.407Z,79.66
2018-02-10T08:26:05.017Z,79.85
2018-02-10T08:26:45.940Z,79.94
2018-02-10T08:27:26.695Z,79.85
2018-02-10T08:28:07.500Z,79.85
2018-02-10T08:28:48.226Z,79.85
2018-02-10T08:29:28.836Z,80.04
2018-02-10T08:30:09.470Z,80.13
2018-02-10T08:30:50.162Z,79.85
2018-02-10T08:31:30.883Z,80.13
2018-02-10T08:32:11.453Z,80.04
2018-02-10T08:32:52.141Z,80.6
2018-02-10T08:33:32.792Z,80.32
2018-02-10T08:34:13.387Z,80.13
2018-02-10T08:34:53.944Z,80.51
2018-02-10T08:35:34.588Z,80.22
2018-02-10T08:36:15.181Z,80.41
2018-02-10T08:36:55.765Z,80.22
2018-02-10T08:37:36.301Z,80.51
2018-02-10T08:38:16.861Z,80.51
2018-02-10T08:38:57.422Z,80.41
2018-02-10T08:39:37.952Z,80.04
2018-02-10T08:40:18.511Z,79.94
2018-02-10T08:40:59.060Z,79.94
2018-02-10T08:41:39.621Z,80.32
2018-02-10T08:42:20.141Z,79.94
2018-02-10T08:43:00.680Z,80.32
2018-02-10T08:43:41.265Z,80.41
2018-02-10T08:44:21.875Z,79.94
2018-02-10T08:45:02.453Z,79.85
2018-02-10T08:45:42.997Z,79.85